Главная страница
METAR-TAF:

METAR-TAF

Аэропорты :

Кристианстад, Швеция

широта: 55-55N, долгота: 014-05E, высота над уровнем моря: 23 м

Текущие метеонаблюдения

Эта сводка был подготовлена 38 минут назад, в 21:50 UTC
Ветер 2 Узел от северно-северо-западный
Температура 4°C
Влажность 100%
Давление 1014 hPa
Видимость: 0450 м
дымка

METAR: ESMK 252150Z AUTO 34002KT 0450 R01/P2000D R19/1700N BR NCD 04/04 Q1014

Время: 00:28 (22:28 UTC)

Прогноз

Эта сводка был подготовлена 8 часа и 25 минут назад, в 14:03 UTC
Прогноз действительный с 25-го 15 UTC до 25-го 19 UTC
Ветер 8 Узел от восточный
Видимость 10 км и более
небольшая облачность на высоте 4000 фута

TAF: ESMK 251403Z 2515/2519 10008KT 9999 FEW040

Метеонаблюдения и прогнозы для более 4000 аэропортов (сводки METAR и TAF).

Имеющиеся станции представлены на карте желтыми и красными точками.

Чтобы увидеть название станции, наведите на нее мышь.

Затем щелкните, чтобы увидеть метеонаблюдения и метеопрогнозы.

Управление картой: чтобы увеличить масштаб, щелкните зеленые кнопки с черным крестиком; чтобы уменьшить масштаб, щелкните зеленую кнопку с тире; для просмотра соседних карт щелкайте зеленые стрелки.


METAR-TAF: